sensor_id;sensor_type;location;lat;lon;timestamp;P1;durP1;ratioP1;P2;durP2;ratioP2
20369;SDS011;10344;47.592;9.600;2022-11-21T00:06:20;0.70;;;0.70;;
20369;SDS011;10344;47.592;9.600;2022-11-21T00:09:46;0.93;;;0.80;;
20369;SDS011;10344;47.592;9.600;2022-11-21T00:13:19;0.60;;;0.60;;
20369;SDS011;10344;47.592;9.600;2022-11-21T00:19:17;0.75;;;0.75;;
20369;SDS011;10344;47.592;9.600;2022-11-21T00:35:34;0.70;;;0.70;;
20369;SDS011;10344;47.592;9.600;2022-11-21T00:41:31;0.63;;;0.63;;
20369;SDS011;10344;47.592;9.600;2022-11-21T00:43:59;1.00;;;0.70;;
20369;SDS011;10344;47.592;9.600;2022-11-21T00:46:38;0.90;;;0.80;;
20369;SDS011;10344;47.592;9.600;2022-11-21T01:04:46;0.85;;;0.75;;
20369;SDS011;10344;47.592;9.600;2022-11-21T01:07:17;0.82;;;0.80;;
20369;SDS011;10344;47.592;9.600;2022-11-21T01:09:46;0.60;;;0.60;;
20369;SDS011;10344;47.592;9.600;2022-11-21T01:12:13;1.05;;;0.60;;
20369;SDS011;10344;47.592;9.600;2022-11-21T01:19:07;1.80;;;0.90;;
20369;SDS011;10344;47.592;9.600;2022-11-21T01:25:43;1.75;;;0.77;;
20369;SDS011;10344;47.592;9.600;2022-11-21T01:28:33;1.10;;;0.90;;
20369;SDS011;10344;47.592;9.600;2022-11-21T01:31:09;2.33;;;0.93;;
20369;SDS011;10344;47.592;9.600;2022-11-21T01:33:39;1.27;;;1.00;;
20369;SDS011;10344;47.592;9.600;2022-11-21T01:36:42;1.70;;;0.90;;
20369;SDS011;10344;47.592;9.600;2022-11-21T01:39:42;1.02;;;0.90;;
20369;SDS011;10344;47.592;9.600;2022-11-21T01:44:50;0.90;;;0.70;;
20369;SDS011;10344;47.592;9.600;2022-11-21T02:05:55;1.40;;;1.00;;
20369;SDS011;10344;47.592;9.600;2022-11-21T02:08:24;1.80;;;1.00;;
20369;SDS011;10344;47.592;9.600;2022-11-21T02:14:24;1.00;;;1.00;;
20369;SDS011;10344;47.592;9.600;2022-11-21T02:17:29;1.58;;;0.75;;
20369;SDS011;10344;47.592;9.600;2022-11-21T02:20:01;1.20;;;0.95;;
20369;SDS011;10344;47.592;9.600;2022-11-21T02:25:23;2.20;;;0.80;;
20369;SDS011;10344;47.592;9.600;2022-11-21T02:28:05;0.80;;;0.80;;
20369;SDS011;10344;47.592;9.600;2022-11-21T02:33:50;1.15;;;0.63;;
20369;SDS011;10344;47.592;9.600;2022-11-21T02:39:30;0.87;;;0.80;;
20369;SDS011;10344;47.592;9.600;2022-11-21T02:42:11;1.63;;;0.73;;
20369;SDS011;10344;47.592;9.600;2022-11-21T02:44:47;2.10;;;0.90;;
20369;SDS011;10344;47.592;9.600;2022-11-21T02:47:17;1.40;;;0.90;;
20369;SDS011;10344;47.592;9.600;2022-11-21T02:49:48;1.00;;;0.90;;
20369;SDS011;10344;47.592;9.600;2022-11-21T02:52:21;1.75;;;0.80;;
20369;SDS011;10344;47.592;9.600;2022-11-21T02:54:47;1.33;;;0.70;;
20369;SDS011;10344;47.592;9.600;2022-11-21T02:57:13;1.90;;;0.85;;
20369;SDS011;10344;47.592;9.600;2022-11-21T02:59:38;0.90;;;0.70;;
20369;SDS011;10344;47.592;9.600;2022-11-21T03:02:05;1.20;;;0.70;;
20369;SDS011;10344;47.592;9.600;2022-11-21T03:04:34;1.35;;;0.73;;
20369;SDS011;10344;47.592;9.600;2022-11-21T03:07:17;1.10;;;0.80;;
20369;SDS011;10344;47.592;9.600;2022-11-21T03:12:42;0.77;;;0.70;;
20369;SDS011;10344;47.592;9.600;2022-11-21T03:15:09;1.50;;;0.63;;
20369;SDS011;10344;47.592;9.600;2022-11-21T03:17:38;1.25;;;0.93;;
20369;SDS011;10344;47.592;9.600;2022-11-21T03:20:04;0.90;;;0.90;;
20369;SDS011;10344;47.592;9.600;2022-11-21T03:22:31;0.77;;;0.77;;
20369;SDS011;10344;47.592;9.600;2022-11-21T03:24:57;1.15;;;0.70;;
20369;SDS011;10344;47.592;9.600;2022-11-21T03:27:31;1.35;;;0.80;;
20369;SDS011;10344;47.592;9.600;2022-11-21T03:36:18;1.90;;;0.65;;
20369;SDS011;10344;47.592;9.600;2022-11-21T03:39:25;1.98;;;0.80;;
20369;SDS011;10344;47.592;9.600;2022-11-21T03:41:54;1.70;;;0.82;;
20369;SDS011;10344;47.592;9.600;2022-11-21T03:44:23;1.40;;;0.80;;
20369;SDS011;10344;47.592;9.600;2022-11-21T03:47:25;1.48;;;0.88;;
20369;SDS011;10344;47.592;9.600;2022-11-21T03:49:56;0.80;;;0.63;;
20369;SDS011;10344;47.592;9.600;2022-11-21T03:52:23;1.10;;;0.63;;
20369;SDS011;10344;47.592;9.600;2022-11-21T03:55:12;0.63;;;0.63;;
20369;SDS011;10344;47.592;9.600;2022-11-21T04:01:05;2.08;;;0.90;;
20369;SDS011;10344;47.592;9.600;2022-11-21T04:03:44;1.67;;;0.90;;
20369;SDS011;10344;47.592;9.600;2022-11-21T04:07:14;1.60;;;0.70;;
20369;SDS011;10344;47.592;9.600;2022-11-21T04:09:55;0.82;;;0.73;;
20369;SDS011;10344;47.592;9.600;2022-11-21T04:12:22;1.70;;;1.00;;
20369;SDS011;10344;47.592;9.600;2022-11-21T04:15:11;0.85;;;0.80;;
20369;SDS011;10344;47.592;9.600;2022-11-21T04:17:52;2.22;;;0.90;;
20369;SDS011;10344;47.592;9.600;2022-11-21T04:20:28;1.98;;;0.85;;
20369;SDS011;10344;47.592;9.600;2022-11-21T04:23:22;2.90;;;1.10;;
20369;SDS011;10344;47.592;9.600;2022-11-21T04:25:47;1.67;;;0.83;;
20369;SDS011;10344;47.592;9.600;2022-11-21T04:28:51;2.38;;;0.80;;
20369;SDS011;10344;47.592;9.600;2022-11-21T04:39:41;2.05;;;0.80;;
20369;SDS011;10344;47.592;9.600;2022-11-21T04:46:21;1.15;;;0.73;;
20369;SDS011;10344;47.592;9.600;2022-11-21T04:48:49;1.30;;;0.80;;
20369;SDS011;10344;47.592;9.600;2022-11-21T04:51:17;1.65;;;0.98;;
20369;SDS011;10344;47.592;9.600;2022-11-21T04:54:26;2.00;;;0.90;;
20369;SDS011;10344;47.592;9.600;2022-11-21T04:57:53;2.45;;;1.15;;
20369;SDS011;10344;47.592;9.600;2022-11-21T05:04:15;1.55;;;0.90;;
20369;SDS011;10344;47.592;9.600;2022-11-21T05:12:42;1.02;;;0.90;;
20369;SDS011;10344;47.592;9.600;2022-11-21T05:15:27;2.88;;;0.82;;
20369;SDS011;10344;47.592;9.600;2022-11-21T05:18:01;2.13;;;1.02;;
20369;SDS011;10344;47.592;9.600;2022-11-21T05:20:34;1.27;;;1.00;;
20369;SDS011;10344;47.592;9.600;2022-11-21T05:26:29;2.50;;;1.00;;
20369;SDS011;10344;47.592;9.600;2022-11-21T05:29:04;0.80;;;0.80;;
20369;SDS011;10344;47.592;9.600;2022-11-21T05:32:25;1.13;;;0.70;;
20369;SDS011;10344;47.592;9.600;2022-11-21T05:35:34;1.20;;;0.80;;
20369;SDS011;10344;47.592;9.600;2022-11-21T05:38:29;1.43;;;0.83;;
20369;SDS011;10344;47.592;9.600;2022-11-21T05:40:57;2.38;;;0.90;;
20369;SDS011;10344;47.592;9.600;2022-11-21T05:43:36;1.58;;;0.77;;
20369;SDS011;10344;47.592;9.600;2022-11-21T05:46:21;2.63;;;1.00;;
20369;SDS011;10344;47.592;9.600;2022-11-21T05:49:20;2.50;;;1.00;;
20369;SDS011;10344;47.592;9.600;2022-11-21T05:51:52;1.60;;;0.88;;
20369;SDS011;10344;47.592;9.600;2022-11-21T05:54:27;2.25;;;1.10;;
20369;SDS011;10344;47.592;9.600;2022-11-21T05:57:01;1.60;;;0.90;;
20369;SDS011;10344;47.592;9.600;2022-11-21T05:59:30;1.63;;;0.80;;
20369;SDS011;10344;47.592;9.600;2022-11-21T06:01:56;2.00;;;1.00;;
20369;SDS011;10344;47.592;9.600;2022-11-21T06:10:57;1.67;;;1.00;;
20369;SDS011;10344;47.592;9.600;2022-11-21T06:16:56;1.13;;;1.00;;
20369;SDS011;10344;47.592;9.600;2022-11-21T06:20:08;1.33;;;0.70;;
20369;SDS011;10344;47.592;9.600;2022-11-21T06:40:06;1.38;;;0.98;;
20369;SDS011;10344;47.592;9.600;2022-11-21T06:46:00;1.02;;;0.80;;
20369;SDS011;10344;47.592;9.600;2022-11-21T06:52:01;2.15;;;0.95;;
20369;SDS011;10344;47.592;9.600;2022-11-21T06:54:47;1.65;;;1.00;;
20369;SDS011;10344;47.592;9.600;2022-11-21T07:07:18;1.08;;;0.90;;
20369;SDS011;10344;47.592;9.600;2022-11-21T07:10:31;1.33;;;0.87;;
20369;SDS011;10344;47.592;9.600;2022-11-21T07:12:59;1.52;;;0.80;;
20369;SDS011;10344;47.592;9.600;2022-11-21T07:15:45;1.40;;;0.90;;
20369;SDS011;10344;47.592;9.600;2022-11-21T07:18:31;1.98;;;1.30;;
20369;SDS011;10344;47.592;9.600;2022-11-21T07:21:03;1.42;;;0.80;;
20369;SDS011;10344;47.592;9.600;2022-11-21T07:23:33;1.33;;;0.85;;
20369;SDS011;10344;47.592;9.600;2022-11-21T07:26:23;1.35;;;0.82;;
20369;SDS011;10344;47.592;9.600;2022-11-21T07:28:48;2.00;;;1.00;;
20369;SDS011;10344;47.592;9.600;2022-11-21T07:46:59;1.20;;;0.80;;
20369;SDS011;10344;47.592;9.600;2022-11-21T07:49:24;1.10;;;0.80;;
20369;SDS011;10344;47.592;9.600;2022-11-21T08:02:19;2.88;;;1.17;;
20369;SDS011;10344;47.592;9.600;2022-11-21T08:04:48;2.28;;;1.02;;
20369;SDS011;10344;47.592;9.600;2022-11-21T08:07:15;2.33;;;1.33;;
20369;SDS011;10344;47.592;9.600;2022-11-21T08:09:41;2.58;;;1.10;;
20369;SDS011;10344;47.592;9.600;2022-11-21T08:12:09;2.05;;;1.20;;
20369;SDS011;10344;47.592;9.600;2022-11-21T08:14:35;2.25;;;1.15;;
20369;SDS011;10344;47.592;9.600;2022-11-21T08:17:01;1.92;;;1.20;;
20369;SDS011;10344;47.592;9.600;2022-11-21T08:19:30;1.83;;;1.00;;
20369;SDS011;10344;47.592;9.600;2022-11-21T08:21:56;1.42;;;1.10;;
20369;SDS011;10344;47.592;9.600;2022-11-21T08:24:22;1.43;;;1.10;;
20369;SDS011;10344;47.592;9.600;2022-11-21T08:26:47;1.93;;;1.23;;
20369;SDS011;10344;47.592;9.600;2022-11-21T08:29:15;2.58;;;1.15;;
20369;SDS011;10344;47.592;9.600;2022-11-21T08:31:41;1.77;;;1.20;;
20369;SDS011;10344;47.592;9.600;2022-11-21T08:34:07;2.95;;;1.35;;
20369;SDS011;10344;47.592;9.600;2022-11-21T08:36:35;2.42;;;1.20;;
20369;SDS011;10344;47.592;9.600;2022-11-21T08:39:03;1.90;;;1.10;;
20369;SDS011;10344;47.592;9.600;2022-11-21T08:44:05;1.00;;;0.90;;
20369;SDS011;10344;47.592;9.600;2022-11-21T08:46:32;2.25;;;1.10;;
20369;SDS011;10344;47.592;9.600;2022-11-21T08:52:08;3.60;;;1.20;;
20369;SDS011;10344;47.592;9.600;2022-11-21T08:56:02;2.75;;;1.08;;
20369;SDS011;10344;47.592;9.600;2022-11-21T08:59:39;1.58;;;1.08;;
20369;SDS011;10344;47.592;9.600;2022-11-21T09:02:22;3.83;;;1.27;;
20369;SDS011;10344;47.592;9.600;2022-11-21T09:10:01;2.10;;;1.05;;
20369;SDS011;10344;47.592;9.600;2022-11-21T09:13:25;1.45;;;1.20;;
20369;SDS011;10344;47.592;9.600;2022-11-21T09:16:57;1.65;;;1.33;;
20369;SDS011;10344;47.592;9.600;2022-11-21T09:21:14;1.52;;;1.42;;
20369;SDS011;10344;47.592;9.600;2022-11-21T09:27:42;2.03;;;1.37;;
20369;SDS011;10344;47.592;9.600;2022-11-21T09:31:01;2.30;;;1.33;;
20369;SDS011;10344;47.592;9.600;2022-11-21T09:37:34;1.98;;;1.10;;
20369;SDS011;10344;47.592;9.600;2022-11-21T09:44:33;2.55;;;1.55;;
20369;SDS011;10344;47.592;9.600;2022-11-21T09:48:00;2.53;;;1.60;;
20369;SDS011;10344;47.592;9.600;2022-11-21T09:51:12;2.10;;;1.40;;
20369;SDS011;10344;47.592;9.600;2022-11-21T09:54:45;1.60;;;1.23;;
20369;SDS011;10344;47.592;9.600;2022-11-21T09:57:33;1.60;;;1.02;;
20369;SDS011;10344;47.592;9.600;2022-11-21T10:01:22;1.92;;;1.20;;
20369;SDS011;10344;47.592;9.600;2022-11-21T10:04:45;1.95;;;1.10;;
20369;SDS011;10344;47.592;9.600;2022-11-21T10:07:48;2.03;;;1.02;;
20369;SDS011;10344;47.592;9.600;2022-11-21T10:28:17;1.45;;;1.17;;
20369;SDS011;10344;47.592;9.600;2022-11-21T10:31:35;1.45;;;1.20;;
20369;SDS011;10344;47.592;9.600;2022-11-21T10:45:09;2.42;;;1.50;;
20369;SDS011;10344;47.592;9.600;2022-11-21T10:54:30;2.53;;;1.45;;
20369;SDS011;10344;47.592;9.600;2022-11-21T10:57:35;1.75;;;1.10;;
20369;SDS011;10344;47.592;9.600;2022-11-21T11:00:41;1.50;;;1.10;;
20369;SDS011;10344;47.592;9.600;2022-11-21T11:03:31;1.70;;;1.27;;
20369;SDS011;10344;47.592;9.600;2022-11-21T11:06:09;1.52;;;1.02;;
20369;SDS011;10344;47.592;9.600;2022-11-21T11:08:50;2.83;;;1.20;;
20369;SDS011;10344;47.592;9.600;2022-11-21T11:11:20;2.75;;;1.10;;
20369;SDS011;10344;47.592;9.600;2022-11-21T11:17:49;1.98;;;1.20;;
20369;SDS011;10344;47.592;9.600;2022-11-21T11:26:30;2.00;;;1.37;;
20369;SDS011;10344;47.592;9.600;2022-11-21T11:32:42;2.88;;;1.33;;
20369;SDS011;10344;47.592;9.600;2022-11-21T11:35:18;1.65;;;1.13;;
20369;SDS011;10344;47.592;9.600;2022-11-21T11:37:57;1.60;;;1.13;;
20369;SDS011;10344;47.592;9.600;2022-11-21T11:43:17;3.40;;;1.65;;
20369;SDS011;10344;47.592;9.600;2022-11-21T11:52:47;2.20;;;1.20;;
20369;SDS011;10344;47.592;9.600;2022-11-21T12:01:35;2.08;;;1.05;;
20369;SDS011;10344;47.592;9.600;2022-11-21T12:04:17;1.75;;;1.00;;
20369;SDS011;10344;47.592;9.600;2022-11-21T12:07:01;2.13;;;1.08;;
20369;SDS011;10344;47.592;9.600;2022-11-21T12:09:51;1.80;;;1.00;;
20369;SDS011;10344;47.592;9.600;2022-11-21T12:12:34;1.70;;;1.13;;
20369;SDS011;10344;47.592;9.600;2022-11-21T12:15:14;1.70;;;1.00;;
20369;SDS011;10344;47.592;9.600;2022-11-21T12:21:36;1.67;;;1.10;;
20369;SDS011;10344;47.592;9.600;2022-11-21T12:25:12;2.05;;;1.08;;
20369;SDS011;10344;47.592;9.600;2022-11-21T12:27:51;1.85;;;1.00;;
20369;SDS011;10344;47.592;9.600;2022-11-21T12:33:57;1.88;;;1.10;;
20369;SDS011;10344;47.592;9.600;2022-11-21T12:43:42;2.78;;;1.10;;
20369;SDS011;10344;47.592;9.600;2022-11-21T12:57:18;1.85;;;1.05;;
20369;SDS011;10344;47.592;9.600;2022-11-21T13:08:18;1.73;;;1.10;;
20369;SDS011;10344;47.592;9.600;2022-11-21T13:13:38;1.60;;;1.30;;
20369;SDS011;10344;47.592;9.600;2022-11-21T13:16:23;1.27;;;1.00;;
20369;SDS011;10344;47.592;9.600;2022-11-21T13:25:34;2.53;;;1.20;;
20369;SDS011;10344;47.592;9.600;2022-11-21T14:20:29;1.83;;;1.50;;
20369;SDS011;10344;47.592;9.600;2022-11-21T14:24:28;2.22;;;1.38;;
20369;SDS011;10344;47.592;9.600;2022-11-21T15:15:37;2.75;;;1.63;;
20369;SDS011;10344;47.592;9.600;2022-11-21T15:18:25;1.90;;;1.33;;
20369;SDS011;10344;47.592;9.600;2022-11-21T15:34:30;2.83;;;1.55;;
20369;SDS011;10344;47.592;9.600;2022-11-21T15:46:44;3.03;;;1.70;;
20369;SDS011;10344;47.592;9.600;2022-11-21T16:05:42;4.25;;;1.92;;
20369;SDS011;10344;47.592;9.600;2022-11-21T16:11:36;3.03;;;1.67;;
20369;SDS011;10344;47.592;9.600;2022-11-21T16:14:36;2.50;;;1.67;;
20369;SDS011;10344;47.592;9.600;2022-11-21T16:21:10;3.47;;;2.00;;
20369;SDS011;10344;47.592;9.600;2022-11-21T16:27:36;2.60;;;1.83;;
20369;SDS011;10344;47.592;9.600;2022-11-21T16:34:25;2.83;;;1.80;;
20369;SDS011;10344;47.592;9.600;2022-11-21T16:41:31;4.28;;;1.80;;
20369;SDS011;10344;47.592;9.600;2022-11-21T16:45:06;2.95;;;2.20;;
20369;SDS011;10344;47.592;9.600;2022-11-21T16:48:40;2.58;;;2.15;;
20369;SDS011;10344;47.592;9.600;2022-11-21T16:51:42;3.85;;;1.98;;
20369;SDS011;10344;47.592;9.600;2022-11-21T17:01:31;3.03;;;2.20;;
20369;SDS011;10344;47.592;9.600;2022-11-21T17:04:25;3.08;;;2.10;;
20369;SDS011;10344;47.592;9.600;2022-11-21T17:10:01;2.63;;;2.00;;
20369;SDS011;10344;47.592;9.600;2022-11-21T17:16:18;3.17;;;2.00;;
20369;SDS011;10344;47.592;9.600;2022-11-21T17:19:42;2.97;;;2.42;;
20369;SDS011;10344;47.592;9.600;2022-11-21T17:29:47;2.00;;;1.80;;
20369;SDS011;10344;47.592;9.600;2022-11-21T17:32:54;2.78;;;2.00;;
20369;SDS011;10344;47.592;9.600;2022-11-21T17:36:41;3.00;;;2.28;;
20369;SDS011;10344;47.592;9.600;2022-11-21T17:49:26;3.80;;;2.50;;
20369;SDS011;10344;47.592;9.600;2022-11-21T17:55:55;3.30;;;2.75;;
20369;SDS011;10344;47.592;9.600;2022-11-21T18:01:54;3.20;;;2.08;;
20369;SDS011;10344;47.592;9.600;2022-11-21T18:05:31;3.07;;;2.00;;
20369;SDS011;10344;47.592;9.600;2022-11-21T18:17:41;2.47;;;2.20;;
20369;SDS011;10344;47.592;9.600;2022-11-21T18:23:36;2.58;;;1.90;;
20369;SDS011;10344;47.592;9.600;2022-11-21T18:26:03;1.60;;;1.50;;
20369;SDS011;10344;47.592;9.600;2022-11-21T18:28:54;2.80;;;1.70;;
20369;SDS011;10344;47.592;9.600;2022-11-21T18:31:58;3.30;;;1.77;;
20369;SDS011;10344;47.592;9.600;2022-11-21T18:35:07;3.00;;;1.95;;
20369;SDS011;10344;47.592;9.600;2022-11-21T18:37:38;2.88;;;2.08;;
20369;SDS011;10344;47.592;9.600;2022-11-21T18:40:16;3.05;;;2.17;;
20369;SDS011;10344;47.592;9.600;2022-11-21T18:42:49;3.42;;;2.38;;
20369;SDS011;10344;47.592;9.600;2022-11-21T18:46:34;3.70;;;2.63;;
20369;SDS011;10344;47.592;9.600;2022-11-21T18:49:34;2.42;;;2.08;;
20369;SDS011;10344;47.592;9.600;2022-11-21T19:43:37;3.33;;;2.17;;
20369;SDS011;10344;47.592;9.600;2022-11-21T19:54:09;2.80;;;2.55;;
20369;SDS011;10344;47.592;9.600;2022-11-21T19:56:41;3.35;;;2.50;;
20369;SDS011;10344;47.592;9.600;2022-11-21T20:00:04;2.95;;;2.60;;
20369;SDS011;10344;47.592;9.600;2022-11-21T20:02:32;3.00;;;2.50;;
20369;SDS011;10344;47.592;9.600;2022-11-21T20:04:58;3.53;;;2.80;;
20369;SDS011;10344;47.592;9.600;2022-11-21T20:07:23;4.80;;;2.90;;
20369;SDS011;10344;47.592;9.600;2022-11-21T20:09:51;4.38;;;3.30;;
20369;SDS011;10344;47.592;9.600;2022-11-21T20:12:17;4.80;;;2.85;;
20369;SDS011;10344;47.592;9.600;2022-11-21T20:14:45;3.85;;;3.00;;
20369;SDS011;10344;47.592;9.600;2022-11-21T20:23:09;4.70;;;3.72;;
20369;SDS011;10344;47.592;9.600;2022-11-21T20:25:40;3.88;;;3.05;;
20369;SDS011;10344;47.592;9.600;2022-11-21T20:28:54;3.63;;;2.50;;
20369;SDS011;10344;47.592;9.600;2022-11-21T20:31:52;4.22;;;3.17;;
20369;SDS011;10344;47.592;9.600;2022-11-21T20:34:54;3.92;;;3.17;;
20369;SDS011;10344;47.592;9.600;2022-11-21T20:40:41;4.13;;;3.05;;
20369;SDS011;10344;47.592;9.600;2022-11-21T20:47:09;4.55;;;3.28;;
20369;SDS011;10344;47.592;9.600;2022-11-21T20:50:30;4.20;;;2.97;;
20369;SDS011;10344;47.592;9.600;2022-11-21T20:53:37;3.47;;;2.50;;
20369;SDS011;10344;47.592;9.600;2022-11-21T20:56:31;4.20;;;2.63;;
20369;SDS011;10344;47.592;9.600;2022-11-21T21:03:01;4.40;;;3.22;;
20369;SDS011;10344;47.592;9.600;2022-11-21T21:06:31;3.70;;;2.85;;
20369;SDS011;10344;47.592;9.600;2022-11-21T21:09:14;3.38;;;2.63;;
20369;SDS011;10344;47.592;9.600;2022-11-21T21:12:06;3.22;;;2.67;;
20369;SDS011;10344;47.592;9.600;2022-11-21T21:15:37;3.50;;;2.78;;
20369;SDS011;10344;47.592;9.600;2022-11-21T21:19:02;3.38;;;2.60;;
20369;SDS011;10344;47.592;9.600;2022-11-21T21:22:33;4.10;;;2.78;;
20369;SDS011;10344;47.592;9.600;2022-11-21T21:25:20;3.45;;;2.60;;
20369;SDS011;10344;47.592;9.600;2022-11-21T21:28:24;5.30;;;2.97;;
20369;SDS011;10344;47.592;9.600;2022-11-21T21:31:18;5.50;;;2.97;;
20369;SDS011;10344;47.592;9.600;2022-11-21T21:33:54;3.58;;;2.50;;
20369;SDS011;10344;47.592;9.600;2022-11-21T21:36:44;4.28;;;2.50;;
20369;SDS011;10344;47.592;9.600;2022-11-21T21:39:42;4.87;;;2.80;;
20369;SDS011;10344;47.592;9.600;2022-11-21T21:42:14;3.78;;;2.65;;
20369;SDS011;10344;47.592;9.600;2022-11-21T21:44:45;3.00;;;2.30;;
20369;SDS011;10344;47.592;9.600;2022-11-21T21:47:37;3.67;;;2.78;;
20369;SDS011;10344;47.592;9.600;2022-11-21T21:50:18;3.93;;;2.87;;
20369;SDS011;10344;47.592;9.600;2022-11-21T21:52:45;4.30;;;3.00;;
20369;SDS011;10344;47.592;9.600;2022-11-21T21:55:21;5.30;;;2.90;;
20369;SDS011;10344;47.592;9.600;2022-11-21T21:58:48;5.63;;;3.70;;
20369;SDS011;10344;47.592;9.600;2022-11-21T22:02:14;4.83;;;3.60;;
20369;SDS011;10344;47.592;9.600;2022-11-21T22:11:52;5.50;;;3.45;;
20369;SDS011;10344;47.592;9.600;2022-11-21T22:22:13;3.30;;;2.50;;
20369;SDS011;10344;47.592;9.600;2022-11-21T22:25:57;2.92;;;2.22;;
20369;SDS011;10344;47.592;9.600;2022-11-21T22:29:29;5.85;;;3.33;;
20369;SDS011;10344;47.592;9.600;2022-11-21T22:32:38;3.35;;;2.38;;
20369;SDS011;10344;47.592;9.600;2022-11-21T22:36:13;3.55;;;2.50;;
20369;SDS011;10344;47.592;9.600;2022-11-21T22:39:42;3.95;;;2.60;;
20369;SDS011;10344;47.592;9.600;2022-11-21T22:43:31;3.40;;;2.22;;
20369;SDS011;10344;47.592;9.600;2022-11-21T22:57:16;3.17;;;2.42;;
20369;SDS011;10344;47.592;9.600;2022-11-21T23:03:49;3.35;;;2.38;;
20369;SDS011;10344;47.592;9.600;2022-11-21T23:06:45;2.67;;;2.20;;
20369;SDS011;10344;47.592;9.600;2022-11-21T23:36:25;4.28;;;2.78;;
20369;SDS011;10344;47.592;9.600;2022-11-21T23:39:52;3.33;;;2.80;;
20369;SDS011;10344;47.592;9.600;2022-11-21T23:46:48;5.43;;;3.33;;
